sensor_id;sensor_type;location;lat;lon;timestamp;P1;durP1;ratioP1;P2;durP2;ratioP2
15697;SDS011;7949;48.726;9.102;2022-10-17T00:00:45;5.90;;;1.67;;
15697;SDS011;7949;48.726;9.102;2022-10-17T00:03:12;4.83;;;1.60;;
15697;SDS011;7949;48.726;9.102;2022-10-17T00:05:39;9.37;;;1.70;;
15697;SDS011;7949;48.726;9.102;2022-10-17T00:08:07;6.33;;;1.80;;
15697;SDS011;7949;48.726;9.102;2022-10-17T00:10:34;7.23;;;1.70;;
15697;SDS011;7949;48.726;9.102;2022-10-17T00:13:01;3.10;;;2.13;;
15697;SDS011;7949;48.726;9.102;2022-10-17T00:15:29;16.33;;;1.77;;
15697;SDS011;7949;48.726;9.102;2022-10-17T00:17:57;9.00;;;2.13;;
15697;SDS011;7949;48.726;9.102;2022-10-17T00:20:25;6.10;;;1.40;;
15697;SDS011;7949;48.726;9.102;2022-10-17T00:22:52;5.03;;;2.00;;
15697;SDS011;7949;48.726;9.102;2022-10-17T00:25:19;4.80;;;1.97;;
15697;SDS011;7949;48.726;9.102;2022-10-17T00:27:46;4.23;;;1.80;;
15697;SDS011;7949;48.726;9.102;2022-10-17T00:30:13;4.03;;;2.10;;
15697;SDS011;7949;48.726;9.102;2022-10-17T00:32:41;3.17;;;2.37;;
15697;SDS011;7949;48.726;9.102;2022-10-17T00:35:09;7.10;;;2.20;;
15697;SDS011;7949;48.726;9.102;2022-10-17T00:37:36;5.17;;;1.80;;
15697;SDS011;7949;48.726;9.102;2022-10-17T00:40:03;2.20;;;1.80;;
15697;SDS011;7949;48.726;9.102;2022-10-17T00:42:31;4.87;;;1.80;;
15697;SDS011;7949;48.726;9.102;2022-10-17T00:45:00;13.77;;;2.07;;
15697;SDS011;7949;48.726;9.102;2022-10-17T00:47:37;8.37;;;1.90;;
15697;SDS011;7949;48.726;9.102;2022-10-17T00:50:06;4.43;;;2.13;;
15697;SDS011;7949;48.726;9.102;2022-10-17T00:52:35;3.37;;;1.93;;
15697;SDS011;7949;48.726;9.102;2022-10-17T00:55:03;4.07;;;2.00;;
15697;SDS011;7949;48.726;9.102;2022-10-17T00:57:35;4.07;;;1.80;;
15697;SDS011;7949;48.726;9.102;2022-10-17T01:00:05;2.30;;;1.90;;
15697;SDS011;7949;48.726;9.102;2022-10-17T01:02:35;9.23;;;2.60;;
15697;SDS011;7949;48.726;9.102;2022-10-17T01:05:03;7.33;;;2.23;;
15697;SDS011;7949;48.726;9.102;2022-10-17T01:07:31;7.63;;;2.20;;
15697;SDS011;7949;48.726;9.102;2022-10-17T01:09:59;4.67;;;2.17;;
15697;SDS011;7949;48.726;9.102;2022-10-17T01:12:28;4.90;;;2.27;;
15697;SDS011;7949;48.726;9.102;2022-10-17T01:15:06;10.47;;;2.30;;
15697;SDS011;7949;48.726;9.102;2022-10-17T01:17:39;4.10;;;2.00;;
15697;SDS011;7949;48.726;9.102;2022-10-17T01:20:32;4.17;;;2.33;;
15697;SDS011;7949;48.726;9.102;2022-10-17T01:23:23;4.83;;;2.10;;
15697;SDS011;7949;48.726;9.102;2022-10-17T01:26:07;7.57;;;2.07;;
15697;SDS011;7949;48.726;9.102;2022-10-17T01:29:00;6.53;;;2.40;;
15697;SDS011;7949;48.726;9.102;2022-10-17T01:31:53;7.40;;;3.27;;
15697;SDS011;7949;48.726;9.102;2022-10-17T01:34:26;7.40;;;1.97;;
15697;SDS011;7949;48.726;9.102;2022-10-17T01:36:58;2.97;;;1.80;;
15697;SDS011;7949;48.726;9.102;2022-10-17T01:39:31;6.67;;;2.20;;
15697;SDS011;7949;48.726;9.102;2022-10-17T01:42:06;12.63;;;2.43;;
15697;SDS011;7949;48.726;9.102;2022-10-17T01:44:41;2.70;;;2.00;;
15697;SDS011;7949;48.726;9.102;2022-10-17T01:47:16;3.40;;;1.97;;
15697;SDS011;7949;48.726;9.102;2022-10-17T01:49:45;2.87;;;2.20;;
15697;SDS011;7949;48.726;9.102;2022-10-17T01:52:13;2.40;;;2.07;;
15697;SDS011;7949;48.726;9.102;2022-10-17T01:54:44;6.70;;;2.20;;
15697;SDS011;7949;48.726;9.102;2022-10-17T01:57:16;3.77;;;2.60;;
15697;SDS011;7949;48.726;9.102;2022-10-17T01:59:46;7.00;;;2.30;;
15697;SDS011;7949;48.726;9.102;2022-10-17T02:02:18;7.43;;;2.63;;
15697;SDS011;7949;48.726;9.102;2022-10-17T02:04:46;6.63;;;2.20;;
15697;SDS011;7949;48.726;9.102;2022-10-17T02:07:16;6.03;;;2.30;;
15697;SDS011;7949;48.726;9.102;2022-10-17T02:09:43;7.13;;;2.70;;
15697;SDS011;7949;48.726;9.102;2022-10-17T02:12:13;8.33;;;1.97;;
15697;SDS011;7949;48.726;9.102;2022-10-17T02:14:53;6.03;;;2.27;;
15697;SDS011;7949;48.726;9.102;2022-10-17T02:17:36;6.37;;;2.10;;
15697;SDS011;7949;48.726;9.102;2022-10-17T02:20:13;9.63;;;2.20;;
15697;SDS011;7949;48.726;9.102;2022-10-17T02:22:46;5.63;;;2.13;;
15697;SDS011;7949;48.726;9.102;2022-10-17T02:25:20;6.97;;;2.30;;
15697;SDS011;7949;48.726;9.102;2022-10-17T02:27:55;5.80;;;2.20;;
15697;SDS011;7949;48.726;9.102;2022-10-17T02:30:29;5.37;;;2.20;;
15697;SDS011;7949;48.726;9.102;2022-10-17T02:33:03;7.97;;;2.53;;
15697;SDS011;7949;48.726;9.102;2022-10-17T02:35:33;5.87;;;2.10;;
15697;SDS011;7949;48.726;9.102;2022-10-17T02:38:02;4.07;;;2.17;;
15697;SDS011;7949;48.726;9.102;2022-10-17T02:40:31;9.10;;;2.00;;
15697;SDS011;7949;48.726;9.102;2022-10-17T02:42:59;8.50;;;2.13;;
15697;SDS011;7949;48.726;9.102;2022-10-17T02:45:26;7.60;;;2.60;;
15697;SDS011;7949;48.726;9.102;2022-10-17T02:48:01;5.73;;;2.20;;
15697;SDS011;7949;48.726;9.102;2022-10-17T02:50:33;8.70;;;2.20;;
15697;SDS011;7949;48.726;9.102;2022-10-17T02:53:10;7.57;;;2.27;;
15697;SDS011;7949;48.726;9.102;2022-10-17T02:55:41;8.67;;;2.43;;
15697;SDS011;7949;48.726;9.102;2022-10-17T02:58:15;4.50;;;2.30;;
15697;SDS011;7949;48.726;9.102;2022-10-17T03:00:44;7.60;;;2.63;;
15697;SDS011;7949;48.726;9.102;2022-10-17T03:03:20;4.80;;;2.27;;
15697;SDS011;7949;48.726;9.102;2022-10-17T03:05:49;9.13;;;2.70;;
15697;SDS011;7949;48.726;9.102;2022-10-17T03:08:16;8.37;;;2.37;;
15697;SDS011;7949;48.726;9.102;2022-10-17T03:10:43;12.73;;;2.60;;
15697;SDS011;7949;48.726;9.102;2022-10-17T03:13:10;14.27;;;2.87;;
15697;SDS011;7949;48.726;9.102;2022-10-17T03:15:37;5.87;;;2.20;;
15697;SDS011;7949;48.726;9.102;2022-10-17T03:18:04;4.50;;;2.27;;
15697;SDS011;7949;48.726;9.102;2022-10-17T03:20:32;9.87;;;2.50;;
15697;SDS011;7949;48.726;9.102;2022-10-17T03:22:59;15.03;;;2.10;;
15697;SDS011;7949;48.726;9.102;2022-10-17T03:25:26;8.13;;;2.23;;
15697;SDS011;7949;48.726;9.102;2022-10-17T03:27:53;12.87;;;2.53;;
15697;SDS011;7949;48.726;9.102;2022-10-17T03:30:20;6.27;;;2.10;;
15697;SDS011;7949;48.726;9.102;2022-10-17T03:32:46;7.03;;;2.40;;
15697;SDS011;7949;48.726;9.102;2022-10-17T03:35:13;10.20;;;2.67;;
15697;SDS011;7949;48.726;9.102;2022-10-17T03:37:42;8.83;;;2.47;;
15697;SDS011;7949;48.726;9.102;2022-10-17T03:40:09;5.73;;;2.50;;
15697;SDS011;7949;48.726;9.102;2022-10-17T03:42:36;4.60;;;2.60;;
15697;SDS011;7949;48.726;9.102;2022-10-17T03:45:03;6.50;;;2.57;;
15697;SDS011;7949;48.726;9.102;2022-10-17T03:47:30;11.60;;;2.60;;
15697;SDS011;7949;48.726;9.102;2022-10-17T03:49:57;5.97;;;2.37;;
15697;SDS011;7949;48.726;9.102;2022-10-17T03:52:24;4.37;;;2.43;;
15697;SDS011;7949;48.726;9.102;2022-10-17T03:54:53;5.80;;;2.30;;
15697;SDS011;7949;48.726;9.102;2022-10-17T03:57:19;4.83;;;2.67;;
15697;SDS011;7949;48.726;9.102;2022-10-17T03:59:46;9.53;;;2.77;;
15697;SDS011;7949;48.726;9.102;2022-10-17T04:02:15;6.80;;;2.70;;
15697;SDS011;7949;48.726;9.102;2022-10-17T04:04:42;12.90;;;4.67;;
15697;SDS011;7949;48.726;9.102;2022-10-17T04:07:08;9.87;;;3.40;;
15697;SDS011;7949;48.726;9.102;2022-10-17T04:09:35;9.47;;;3.40;;
15697;SDS011;7949;48.726;9.102;2022-10-17T04:12:04;5.47;;;2.40;;
15697;SDS011;7949;48.726;9.102;2022-10-17T04:14:31;6.10;;;2.40;;
15697;SDS011;7949;48.726;9.102;2022-10-17T04:16:58;7.33;;;2.73;;
15697;SDS011;7949;48.726;9.102;2022-10-17T04:19:25;5.53;;;2.53;;
15697;SDS011;7949;48.726;9.102;2022-10-17T04:21:51;8.43;;;2.50;;
15697;SDS011;7949;48.726;9.102;2022-10-17T04:24:18;8.57;;;2.27;;
15697;SDS011;7949;48.726;9.102;2022-10-17T04:26:47;4.97;;;2.90;;
15697;SDS011;7949;48.726;9.102;2022-10-17T04:29:16;6.03;;;2.57;;
15697;SDS011;7949;48.726;9.102;2022-10-17T04:31:43;7.30;;;2.40;;
15697;SDS011;7949;48.726;9.102;2022-10-17T04:34:09;5.10;;;2.80;;
15697;SDS011;7949;48.726;9.102;2022-10-17T04:36:38;6.07;;;2.50;;
15697;SDS011;7949;48.726;9.102;2022-10-17T04:39:05;6.50;;;2.40;;
15697;SDS011;7949;48.726;9.102;2022-10-17T04:41:32;9.00;;;2.50;;
15697;SDS011;7949;48.726;9.102;2022-10-17T04:43:59;4.23;;;2.83;;
15697;SDS011;7949;48.726;9.102;2022-10-17T04:46:27;3.17;;;2.30;;
15697;SDS011;7949;48.726;9.102;2022-10-17T04:48:54;3.83;;;2.40;;
15697;SDS011;7949;48.726;9.102;2022-10-17T04:51:21;7.17;;;3.13;;
15697;SDS011;7949;48.726;9.102;2022-10-17T04:53:48;8.77;;;2.33;;
15697;SDS011;7949;48.726;9.102;2022-10-17T04:56:15;9.37;;;2.73;;
15697;SDS011;7949;48.726;9.102;2022-10-17T04:58:43;5.33;;;2.57;;
15697;SDS011;7949;48.726;9.102;2022-10-17T05:01:11;6.40;;;2.47;;
15697;SDS011;7949;48.726;9.102;2022-10-17T05:03:40;7.70;;;3.00;;
15697;SDS011;7949;48.726;9.102;2022-10-17T05:06:08;14.73;;;2.63;;
15697;SDS011;7949;48.726;9.102;2022-10-17T05:08:36;6.27;;;3.00;;
15697;SDS011;7949;48.726;9.102;2022-10-17T05:11:03;4.07;;;2.47;;
15697;SDS011;7949;48.726;9.102;2022-10-17T05:13:31;4.40;;;2.97;;
15697;SDS011;7949;48.726;9.102;2022-10-17T05:15:58;3.43;;;2.17;;
15697;SDS011;7949;48.726;9.102;2022-10-17T05:18:26;5.57;;;2.80;;
15697;SDS011;7949;48.726;9.102;2022-10-17T05:20:54;9.47;;;2.77;;
15697;SDS011;7949;48.726;9.102;2022-10-17T05:23:21;11.07;;;3.63;;
15697;SDS011;7949;48.726;9.102;2022-10-17T05:25:52;10.73;;;2.90;;
15697;SDS011;7949;48.726;9.102;2022-10-17T05:28:19;6.30;;;3.20;;
15697;SDS011;7949;48.726;9.102;2022-10-17T05:30:47;10.33;;;5.53;;
15697;SDS011;7949;48.726;9.102;2022-10-17T05:33:14;13.50;;;4.73;;
15697;SDS011;7949;48.726;9.102;2022-10-17T05:35:41;8.30;;;3.97;;
15697;SDS011;7949;48.726;9.102;2022-10-17T05:38:09;8.80;;;3.73;;
15697;SDS011;7949;48.726;9.102;2022-10-17T05:40:36;7.13;;;4.47;;
15697;SDS011;7949;48.726;9.102;2022-10-17T05:43:03;10.53;;;4.27;;
15697;SDS011;7949;48.726;9.102;2022-10-17T05:45:30;11.53;;;4.13;;
15697;SDS011;7949;48.726;9.102;2022-10-17T05:47:57;9.80;;;3.30;;
15697;SDS011;7949;48.726;9.102;2022-10-17T05:50:24;13.17;;;3.47;;
15697;SDS011;7949;48.726;9.102;2022-10-17T05:52:54;7.83;;;3.03;;
15697;SDS011;7949;48.726;9.102;2022-10-17T05:55:22;13.57;;;3.30;;
15697;SDS011;7949;48.726;9.102;2022-10-17T05:57:49;10.47;;;3.40;;
15697;SDS011;7949;48.726;9.102;2022-10-17T06:00:16;6.67;;;3.10;;
15697;SDS011;7949;48.726;9.102;2022-10-17T06:02:44;8.43;;;3.13;;
15697;SDS011;7949;48.726;9.102;2022-10-17T06:05:11;7.50;;;3.20;;
15697;SDS011;7949;48.726;9.102;2022-10-17T06:07:38;7.67;;;3.23;;
15697;SDS011;7949;48.726;9.102;2022-10-17T06:10:05;6.00;;;3.40;;
15697;SDS011;7949;48.726;9.102;2022-10-17T06:12:34;17.17;;;3.80;;
15697;SDS011;7949;48.726;9.102;2022-10-17T06:15:01;11.03;;;3.47;;
15697;SDS011;7949;48.726;9.102;2022-10-17T06:17:28;13.13;;;3.40;;
15697;SDS011;7949;48.726;9.102;2022-10-17T06:19:55;8.17;;;3.60;;
15697;SDS011;7949;48.726;9.102;2022-10-17T06:22:22;6.03;;;3.53;;
15697;SDS011;7949;48.726;9.102;2022-10-17T06:24:49;6.73;;;3.57;;
15697;SDS011;7949;48.726;9.102;2022-10-17T06:27:16;7.93;;;3.73;;
15697;SDS011;7949;48.726;9.102;2022-10-17T06:29:45;8.07;;;3.33;;
15697;SDS011;7949;48.726;9.102;2022-10-17T06:32:11;4.60;;;3.37;;
15697;SDS011;7949;48.726;9.102;2022-10-17T06:34:38;10.37;;;4.33;;
15697;SDS011;7949;48.726;9.102;2022-10-17T06:37:05;7.23;;;4.00;;
15697;SDS011;7949;48.726;9.102;2022-10-17T06:39:33;6.17;;;3.80;;
15697;SDS011;7949;48.726;9.102;2022-10-17T06:42:00;10.70;;;3.73;;
15697;SDS011;7949;48.726;9.102;2022-10-17T06:44:28;6.33;;;3.90;;
15697;SDS011;7949;48.726;9.102;2022-10-17T06:46:57;7.90;;;3.37;;
15697;SDS011;7949;48.726;9.102;2022-10-17T06:49:24;13.10;;;4.00;;
15697;SDS011;7949;48.726;9.102;2022-10-17T06:51:51;10.53;;;4.23;;
15697;SDS011;7949;48.726;9.102;2022-10-17T06:54:18;14.13;;;5.03;;
15697;SDS011;7949;48.726;9.102;2022-10-17T06:56:45;6.77;;;4.13;;
15697;SDS011;7949;48.726;9.102;2022-10-17T06:59:12;9.37;;;3.60;;
15697;SDS011;7949;48.726;9.102;2022-10-17T07:01:39;9.87;;;3.40;;
15697;SDS011;7949;48.726;9.102;2022-10-17T07:04:07;6.10;;;3.10;;
15697;SDS011;7949;48.726;9.102;2022-10-17T07:06:34;5.40;;;2.70;;
15697;SDS011;7949;48.726;9.102;2022-10-17T07:09:02;5.07;;;2.80;;
15697;SDS011;7949;48.726;9.102;2022-10-17T07:11:31;6.27;;;2.63;;
15697;SDS011;7949;48.726;9.102;2022-10-17T07:13:59;5.90;;;2.37;;
15697;SDS011;7949;48.726;9.102;2022-10-17T07:16:26;5.83;;;2.33;;
15697;SDS011;7949;48.726;9.102;2022-10-17T07:18:53;6.70;;;2.30;;
15697;SDS011;7949;48.726;9.102;2022-10-17T07:21:22;3.57;;;1.97;;
15697;SDS011;7949;48.726;9.102;2022-10-17T07:23:50;4.33;;;2.07;;
15697;SDS011;7949;48.726;9.102;2022-10-17T07:26:17;16.63;;;2.53;;
15697;SDS011;7949;48.726;9.102;2022-10-17T07:28:45;5.07;;;2.00;;
15697;SDS011;7949;48.726;9.102;2022-10-17T07:31:15;5.27;;;2.30;;
15697;SDS011;7949;48.726;9.102;2022-10-17T07:33:43;2.40;;;1.67;;
15697;SDS011;7949;48.726;9.102;2022-10-17T07:36:10;5.63;;;2.07;;
15697;SDS011;7949;48.726;9.102;2022-10-17T07:38:39;2.90;;;1.60;;
15697;SDS011;7949;48.726;9.102;2022-10-17T07:41:07;4.43;;;1.80;;
15697;SDS011;7949;48.726;9.102;2022-10-17T07:43:35;6.23;;;2.00;;
15697;SDS011;7949;48.726;9.102;2022-10-17T07:46:03;6.07;;;2.00;;
15697;SDS011;7949;48.726;9.102;2022-10-17T07:48:30;3.70;;;1.97;;
15697;SDS011;7949;48.726;9.102;2022-10-17T07:51:00;3.77;;;1.70;;
15697;SDS011;7949;48.726;9.102;2022-10-17T07:53:28;7.10;;;2.40;;
15697;SDS011;7949;48.726;9.102;2022-10-17T07:55:56;3.00;;;1.60;;
15697;SDS011;7949;48.726;9.102;2022-10-17T07:58:23;4.97;;;1.70;;
15697;SDS011;7949;48.726;9.102;2022-10-17T08:00:50;10.07;;;1.77;;
15697;SDS011;7949;48.726;9.102;2022-10-17T08:03:17;4.93;;;1.40;;
15697;SDS011;7949;48.726;9.102;2022-10-17T08:05:44;5.57;;;2.20;;
15697;SDS011;7949;48.726;9.102;2022-10-17T08:08:10;7.63;;;1.57;;
15697;SDS011;7949;48.726;9.102;2022-10-17T08:10:37;4.07;;;1.70;;
15697;SDS011;7949;48.726;9.102;2022-10-17T08:13:05;4.90;;;1.50;;
15697;SDS011;7949;48.726;9.102;2022-10-17T08:15:32;4.03;;;1.60;;
15697;SDS011;7949;48.726;9.102;2022-10-17T08:17:59;3.53;;;1.50;;
15697;SDS011;7949;48.726;9.102;2022-10-17T08:20:26;2.97;;;1.53;;
15697;SDS011;7949;48.726;9.102;2022-10-17T08:22:53;1.80;;;1.30;;
15697;SDS011;7949;48.726;9.102;2022-10-17T08:25:20;2.93;;;1.83;;
15697;SDS011;7949;48.726;9.102;2022-10-17T08:27:47;3.33;;;1.10;;
15697;SDS011;7949;48.726;9.102;2022-10-17T08:30:16;2.10;;;1.40;;
15697;SDS011;7949;48.726;9.102;2022-10-17T08:32:43;5.27;;;1.90;;
15697;SDS011;7949;48.726;9.102;2022-10-17T08:35:10;2.63;;;1.63;;
15697;SDS011;7949;48.726;9.102;2022-10-17T08:37:38;8.70;;;1.40;;
15697;SDS011;7949;48.726;9.102;2022-10-17T08:40:06;4.80;;;1.50;;
15697;SDS011;7949;48.726;9.102;2022-10-17T08:42:44;4.80;;;1.43;;
15697;SDS011;7949;48.726;9.102;2022-10-17T08:45:29;3.27;;;1.53;;
15697;SDS011;7949;48.726;9.102;2022-10-17T08:48:01;8.97;;;1.33;;
15697;SDS011;7949;48.726;9.102;2022-10-17T08:50:38;4.60;;;1.60;;
15697;SDS011;7949;48.726;9.102;2022-10-17T08:53:09;2.97;;;1.80;;
15697;SDS011;7949;48.726;9.102;2022-10-17T08:55:43;2.80;;;1.40;;
15697;SDS011;7949;48.726;9.102;2022-10-17T08:58:12;7.00;;;1.40;;
15697;SDS011;7949;48.726;9.102;2022-10-17T09:00:45;5.23;;;1.73;;
15697;SDS011;7949;48.726;9.102;2022-10-17T09:03:24;5.07;;;1.30;;
15697;SDS011;7949;48.726;9.102;2022-10-17T09:06:10;6.40;;;1.60;;
15697;SDS011;7949;48.726;9.102;2022-10-17T09:08:43;3.67;;;1.33;;
15697;SDS011;7949;48.726;9.102;2022-10-17T09:11:21;4.13;;;1.43;;
15697;SDS011;7949;48.726;9.102;2022-10-17T09:14:01;2.40;;;1.45;;
15697;SDS011;7949;48.726;9.102;2022-10-17T09:16:44;3.30;;;1.40;;
15697;SDS011;7949;48.726;9.102;2022-10-17T09:19:27;3.17;;;1.40;;
15697;SDS011;7949;48.726;9.102;2022-10-17T09:21:57;2.47;;;1.60;;
15697;SDS011;7949;48.726;9.102;2022-10-17T09:24:31;3.50;;;1.98;;
15697;SDS011;7949;48.726;9.102;2022-10-17T09:27:04;3.88;;;1.45;;
15697;SDS011;7949;48.726;9.102;2022-10-17T09:29:35;5.40;;;1.35;;
15697;SDS011;7949;48.726;9.102;2022-10-17T09:32:12;4.40;;;1.63;;
15697;SDS011;7949;48.726;9.102;2022-10-17T09:34:42;1.73;;;1.35;;
15697;SDS011;7949;48.726;9.102;2022-10-17T09:37:10;3.70;;;1.70;;
15697;SDS011;7949;48.726;9.102;2022-10-17T09:39:39;3.43;;;1.47;;
15697;SDS011;7949;48.726;9.102;2022-10-17T09:42:08;3.88;;;1.50;;
15697;SDS011;7949;48.726;9.102;2022-10-17T09:44:39;4.38;;;1.83;;
15697;SDS011;7949;48.726;9.102;2022-10-17T09:47:19;2.15;;;1.50;;
15697;SDS011;7949;48.726;9.102;2022-10-17T09:49:50;7.25;;;1.70;;
15697;SDS011;7949;48.726;9.102;2022-10-17T09:52:17;3.35;;;1.50;;
15697;SDS011;7949;48.726;9.102;2022-10-17T09:54:47;2.45;;;1.38;;
15697;SDS011;7949;48.726;9.102;2022-10-17T09:57:15;7.78;;;1.70;;
15697;SDS011;7949;48.726;9.102;2022-10-17T09:59:44;4.10;;;1.52;;
15697;SDS011;7949;48.726;9.102;2022-10-17T10:02:15;6.63;;;1.47;;
15697;SDS011;7949;48.726;9.102;2022-10-17T10:04:58;1.70;;;1.42;;
15697;SDS011;7949;48.726;9.102;2022-10-17T10:07:26;2.00;;;1.50;;
15697;SDS011;7949;48.726;9.102;2022-10-17T10:09:54;3.63;;;1.50;;
15697;SDS011;7949;48.726;9.102;2022-10-17T10:12:24;1.48;;;1.38;;
15697;SDS011;7949;48.726;9.102;2022-10-17T10:14:52;3.28;;;1.52;;
15697;SDS011;7949;48.726;9.102;2022-10-17T10:17:28;4.43;;;1.40;;
15697;SDS011;7949;48.726;9.102;2022-10-17T10:20:05;2.83;;;1.45;;
15697;SDS011;7949;48.726;9.102;2022-10-17T10:23:08;2.78;;;1.20;;
15697;SDS011;7949;48.726;9.102;2022-10-17T10:25:41;3.92;;;1.60;;
15697;SDS011;7949;48.726;9.102;2022-10-17T10:28:17;4.03;;;1.60;;
15697;SDS011;7949;48.726;9.102;2022-10-17T10:30:46;1.73;;;1.38;;
15697;SDS011;7949;48.726;9.102;2022-10-17T10:33:15;6.05;;;1.60;;
15697;SDS011;7949;48.726;9.102;2022-10-17T10:35:50;6.07;;;1.35;;
15697;SDS011;7949;48.726;9.102;2022-10-17T10:38:20;3.42;;;1.27;;
15697;SDS011;7949;48.726;9.102;2022-10-17T10:40:47;6.03;;;1.50;;
15697;SDS011;7949;48.726;9.102;2022-10-17T10:43:19;1.85;;;1.40;;
15697;SDS011;7949;48.726;9.102;2022-10-17T10:45:49;2.22;;;1.33;;
15697;SDS011;7949;48.726;9.102;2022-10-17T10:48:19;4.80;;;1.50;;
15697;SDS011;7949;48.726;9.102;2022-10-17T10:50:48;3.25;;;1.52;;
15697;SDS011;7949;48.726;9.102;2022-10-17T10:53:32;3.50;;;1.50;;
15697;SDS011;7949;48.726;9.102;2022-10-17T10:56:07;3.30;;;1.80;;
15697;SDS011;7949;48.726;9.102;2022-10-17T10:58:40;2.03;;;1.52;;
15697;SDS011;7949;48.726;9.102;2022-10-17T11:01:16;2.80;;;1.50;;
15697;SDS011;7949;48.726;9.102;2022-10-17T11:03:52;7.30;;;1.42;;
15697;SDS011;7949;48.726;9.102;2022-10-17T11:06:26;6.05;;;1.85;;
15697;SDS011;7949;48.726;9.102;2022-10-17T11:08:58;2.40;;;1.48;;
15697;SDS011;7949;48.726;9.102;2022-10-17T11:11:38;2.83;;;1.40;;
15697;SDS011;7949;48.726;9.102;2022-10-17T11:14:11;5.25;;;1.38;;
15697;SDS011;7949;48.726;9.102;2022-10-17T11:16:43;7.68;;;1.45;;
15697;SDS011;7949;48.726;9.102;2022-10-17T11:19:16;5.57;;;1.50;;
15697;SDS011;7949;48.726;9.102;2022-10-17T11:21:52;7.18;;;1.50;;
15697;SDS011;7949;48.726;9.102;2022-10-17T11:24:29;4.65;;;1.23;;
15697;SDS011;7949;48.726;9.102;2022-10-17T11:27:01;2.72;;;1.25;;
15697;SDS011;7949;48.726;9.102;2022-10-17T11:29:31;5.20;;;1.25;;
15697;SDS011;7949;48.726;9.102;2022-10-17T11:32:00;3.70;;;1.30;;
15697;SDS011;7949;48.726;9.102;2022-10-17T11:34:34;3.63;;;1.25;;
15697;SDS011;7949;48.726;9.102;2022-10-17T11:37:08;4.90;;;1.20;;
15697;SDS011;7949;48.726;9.102;2022-10-17T11:39:41;4.32;;;1.50;;
15697;SDS011;7949;48.726;9.102;2022-10-17T11:42:14;4.80;;;1.60;;
15697;SDS011;7949;48.726;9.102;2022-10-17T11:44:44;9.05;;;1.50;;
15697;SDS011;7949;48.726;9.102;2022-10-17T11:47:18;3.85;;;1.50;;
15697;SDS011;7949;48.726;9.102;2022-10-17T11:49:56;4.38;;;1.40;;
15697;SDS011;7949;48.726;9.102;2022-10-17T11:52:31;2.95;;;1.20;;
15697;SDS011;7949;48.726;9.102;2022-10-17T11:55:04;3.33;;;1.20;;
15697;SDS011;7949;48.726;9.102;2022-10-17T11:57:41;5.50;;;1.35;;
15697;SDS011;7949;48.726;9.102;2022-10-17T12:00:19;4.32;;;1.10;;
15697;SDS011;7949;48.726;9.102;2022-10-17T12:02:52;5.22;;;1.30;;
15697;SDS011;7949;48.726;9.102;2022-10-17T12:05:30;7.15;;;1.42;;
15697;SDS011;7949;48.726;9.102;2022-10-17T12:08:04;1.80;;;1.20;;
15697;SDS011;7949;48.726;9.102;2022-10-17T12:10:38;3.20;;;1.30;;
15697;SDS011;7949;48.726;9.102;2022-10-17T12:19:20;6.03;;;1.42;;
15697;SDS011;7949;48.726;9.102;2022-10-17T12:22:00;3.25;;;1.33;;
15697;SDS011;7949;48.726;9.102;2022-10-17T12:24:34;5.55;;;1.30;;
15697;SDS011;7949;48.726;9.102;2022-10-17T12:27:20;3.70;;;1.65;;
15697;SDS011;7949;48.726;9.102;2022-10-17T12:30:23;3.05;;;1.30;;
15697;SDS011;7949;48.726;9.102;2022-10-17T12:35:46;7.03;;;1.73;;
15697;SDS011;7949;48.726;9.102;2022-10-17T12:38:23;4.45;;;1.58;;
15697;SDS011;7949;48.726;9.102;2022-10-17T12:40:52;2.58;;;1.38;;
15697;SDS011;7949;48.726;9.102;2022-10-17T12:49:24;4.57;;;1.60;;
15697;SDS011;7949;48.726;9.102;2022-10-17T12:52:13;4.68;;;1.70;;
15697;SDS011;7949;48.726;9.102;2022-10-17T12:54:49;3.22;;;1.25;;
15697;SDS011;7949;48.726;9.102;2022-10-17T12:57:20;3.72;;;1.30;;
15697;SDS011;7949;48.726;9.102;2022-10-17T12:59:52;2.90;;;1.20;;
15697;SDS011;7949;48.726;9.102;2022-10-17T13:02:19;3.15;;;1.20;;
15697;SDS011;7949;48.726;9.102;2022-10-17T13:04:55;3.05;;;1.25;;
15697;SDS011;7949;48.726;9.102;2022-10-17T13:07:28;2.72;;;1.23;;
15697;SDS011;7949;48.726;9.102;2022-10-17T13:09:56;2.70;;;1.08;;
15697;SDS011;7949;48.726;9.102;2022-10-17T13:12:28;3.65;;;1.50;;
15697;SDS011;7949;48.726;9.102;2022-10-17T13:14:57;4.75;;;1.40;;
15697;SDS011;7949;48.726;9.102;2022-10-17T13:17:27;4.93;;;1.48;;
15697;SDS011;7949;48.726;9.102;2022-10-17T13:19:55;3.25;;;1.60;;
15697;SDS011;7949;48.726;9.102;2022-10-17T13:22:24;1.70;;;1.30;;
15697;SDS011;7949;48.726;9.102;2022-10-17T13:25:02;3.25;;;1.13;;
15697;SDS011;7949;48.726;9.102;2022-10-17T13:27:39;3.15;;;1.13;;
15697;SDS011;7949;48.726;9.102;2022-10-17T13:30:20;1.98;;;1.48;;
15697;SDS011;7949;48.726;9.102;2022-10-17T13:32:52;4.28;;;2.08;;
15697;SDS011;7949;48.726;9.102;2022-10-17T13:35:23;4.25;;;1.30;;
15697;SDS011;7949;48.726;9.102;2022-10-17T13:37:52;3.92;;;1.70;;
15697;SDS011;7949;48.726;9.102;2022-10-17T13:40:23;5.40;;;1.65;;
15697;SDS011;7949;48.726;9.102;2022-10-17T13:42:52;7.53;;;1.92;;
15697;SDS011;7949;48.726;9.102;2022-10-17T13:45:23;7.65;;;2.10;;
15697;SDS011;7949;48.726;9.102;2022-10-17T13:47:54;4.40;;;1.88;;
15697;SDS011;7949;48.726;9.102;2022-10-17T13:50:24;8.65;;;1.90;;
15697;SDS011;7949;48.726;9.102;2022-10-17T13:55:53;2.95;;;1.88;;
15697;SDS011;7949;48.726;9.102;2022-10-17T13:58:22;6.20;;;2.00;;
15697;SDS011;7949;48.726;9.102;2022-10-17T14:00:50;8.32;;;2.63;;
15697;SDS011;7949;48.726;9.102;2022-10-17T14:03:18;8.30;;;2.03;;
15697;SDS011;7949;48.726;9.102;2022-10-17T14:06:05;5.72;;;1.98;;
15697;SDS011;7949;48.726;9.102;2022-10-17T14:08:47;8.80;;;1.98;;
15697;SDS011;7949;48.726;9.102;2022-10-17T14:11:31;7.80;;;1.55;;
15697;SDS011;7949;48.726;9.102;2022-10-17T14:14:00;7.55;;;1.40;;
15697;SDS011;7949;48.726;9.102;2022-10-17T14:16:32;6.53;;;1.77;;
15697;SDS011;7949;48.726;9.102;2022-10-17T14:19:01;3.28;;;1.50;;
15697;SDS011;7949;48.726;9.102;2022-10-17T14:21:30;3.97;;;1.83;;
15697;SDS011;7949;48.726;9.102;2022-10-17T14:24:25;6.78;;;2.00;;
15697;SDS011;7949;48.726;9.102;2022-10-17T14:26:55;2.83;;;1.80;;
15697;SDS011;7949;48.726;9.102;2022-10-17T14:29:24;3.28;;;2.05;;
15697;SDS011;7949;48.726;9.102;2022-10-17T14:31:57;3.75;;;1.85;;
15697;SDS011;7949;48.726;9.102;2022-10-17T14:34:28;5.38;;;1.60;;
15697;SDS011;7949;48.726;9.102;2022-10-17T14:36:57;7.68;;;2.15;;
15697;SDS011;7949;48.726;9.102;2022-10-17T14:39:25;6.32;;;2.10;;
15697;SDS011;7949;48.726;9.102;2022-10-17T14:41:54;12.63;;;2.28;;
15697;SDS011;7949;48.726;9.102;2022-10-17T14:44:22;9.18;;;1.73;;
15697;SDS011;7949;48.726;9.102;2022-10-17T14:46:56;5.57;;;2.22;;
15697;SDS011;7949;48.726;9.102;2022-10-17T14:49:27;6.10;;;1.88;;
15697;SDS011;7949;48.726;9.102;2022-10-17T14:52:08;6.35;;;1.45;;
15697;SDS011;7949;48.726;9.102;2022-10-17T14:54:36;6.25;;;1.67;;
15697;SDS011;7949;48.726;9.102;2022-10-17T14:57:13;4.32;;;1.55;;
15697;SDS011;7949;48.726;9.102;2022-10-17T14:59:42;3.85;;;1.48;;
15697;SDS011;7949;48.726;9.102;2022-10-17T15:02:09;5.15;;;2.05;;
15697;SDS011;7949;48.726;9.102;2022-10-17T15:04:36;4.03;;;2.20;;
15697;SDS011;7949;48.726;9.102;2022-10-17T15:07:02;5.65;;;2.10;;
15697;SDS011;7949;48.726;9.102;2022-10-17T15:09:29;7.15;;;2.20;;
15697;SDS011;7949;48.726;9.102;2022-10-17T15:11:57;10.10;;;2.53;;
15697;SDS011;7949;48.726;9.102;2022-10-17T15:14:27;6.40;;;1.90;;
15697;SDS011;7949;48.726;9.102;2022-10-17T15:16:54;7.38;;;1.90;;
15697;SDS011;7949;48.726;9.102;2022-10-17T15:19:21;4.85;;;1.70;;
15697;SDS011;7949;48.726;9.102;2022-10-17T15:21:48;7.35;;;2.00;;
15697;SDS011;7949;48.726;9.102;2022-10-17T15:24:15;6.05;;;2.30;;
15697;SDS011;7949;48.726;9.102;2022-10-17T15:26:41;2.92;;;1.90;;
15697;SDS011;7949;48.726;9.102;2022-10-17T15:29:09;3.97;;;1.95;;
15697;SDS011;7949;48.726;9.102;2022-10-17T15:31:41;5.88;;;2.22;;
15697;SDS011;7949;48.726;9.102;2022-10-17T15:34:08;6.30;;;2.33;;
15697;SDS011;7949;48.726;9.102;2022-10-17T15:36:35;10.00;;;2.45;;
15697;SDS011;7949;48.726;9.102;2022-10-17T15:39:05;5.80;;;2.00;;